Accueil
METAR-TAF:

METAR-TAF

Aéroports :

Pocono Mountains Municipal Airport

Mount Pocono, Pennsylvanie, États-Unis

latitude: 41-08-20N, longitude: 075-23-46W, altitude: 584 m

Observation

Le bulletin a été fait il y a 13 minutes, à 16:53 UTC
Vent 11 kt de ouest/sud-ouest
Température 16°C
Humidité 51%
Pression 1014 hPa
Visibilité: 16.1 km
Quelques nuages à une hauteur de 10000 ft

METAR: KMPO 011653Z AUTO 25011KT 10SM FEW100 16/06 A2993 RMK AO2 SLP133 T01610056 $

Heure: 13:06 (17:06 UTC)


TAF: absent

Observations et prévisions météorologiques de plus de 4000 aéroports (messages METAR et TAF).

Les stations disponibles sont représentées par des disques jaunes et rouges sur la carte.

Passer la souris dessus pour voir le nom de la station.

Cliquer dessus pour voir les observations et prévisions météorologiques.

Pour changer de carte: cliquez sur les boutons verts avec une croix noire pour zoomer, sur le bouton vert avec un tiret pour effectuer un zoom arrière, ou sur les flèches vertes pour les cartes adjacentes.


METAR-TAF: